sensor_id;sensor_type;location;lat;lon;timestamp;P1;durP1;ratioP1;P2;durP2;ratioP2
66487;SDS011;53304;54.550;18.526;2023-11-21T00:01:31;4.32;;;2.70;;
66487;SDS011;53304;54.550;18.526;2023-11-21T00:03:59;4.53;;;2.42;;
66487;SDS011;53304;54.550;18.526;2023-11-21T00:06:25;4.75;;;2.47;;
66487;SDS011;53304;54.550;18.526;2023-11-21T00:08:52;4.45;;;2.47;;
66487;SDS011;53304;54.550;18.526;2023-11-21T00:11:18;4.20;;;2.38;;
66487;SDS011;53304;54.550;18.526;2023-11-21T00:13:46;4.30;;;2.17;;
66487;SDS011;53304;54.550;18.526;2023-11-21T00:16:13;5.65;;;2.53;;
66487;SDS011;53304;54.550;18.526;2023-11-21T00:18:41;4.05;;;2.22;;
66487;SDS011;53304;54.550;18.526;2023-11-21T00:21:14;5.15;;;2.53;;
66487;SDS011;53304;54.550;18.526;2023-11-21T00:23:39;4.25;;;2.17;;
66487;SDS011;53304;54.550;18.526;2023-11-21T00:26:05;5.65;;;2.50;;
66487;SDS011;53304;54.550;18.526;2023-11-21T00:28:33;8.52;;;2.58;;
66487;SDS011;53304;54.550;18.526;2023-11-21T00:30:59;4.50;;;2.35;;
66487;SDS011;53304;54.550;18.526;2023-11-21T00:33:26;4.07;;;2.20;;
66487;SDS011;53304;54.550;18.526;2023-11-21T00:35:54;3.70;;;2.20;;
66487;SDS011;53304;54.550;18.526;2023-11-21T00:38:22;4.63;;;2.40;;
66487;SDS011;53304;54.550;18.526;2023-11-21T00:40:50;5.03;;;2.38;;
66487;SDS011;53304;54.550;18.526;2023-11-21T00:43:16;3.47;;;2.10;;
66487;SDS011;53304;54.550;18.526;2023-11-21T00:45:44;3.80;;;2.38;;
66487;SDS011;53304;54.550;18.526;2023-11-21T00:48:09;4.40;;;2.30;;
66487;SDS011;53304;54.550;18.526;2023-11-21T00:50:38;3.55;;;2.03;;
66487;SDS011;53304;54.550;18.526;2023-11-21T00:53:06;6.07;;;2.42;;
66487;SDS011;53304;54.550;18.526;2023-11-21T00:55:32;7.03;;;2.42;;
66487;SDS011;53304;54.550;18.526;2023-11-21T00:58:00;4.00;;;2.17;;
66487;SDS011;53304;54.550;18.526;2023-11-21T01:00:28;4.40;;;2.38;;
66487;SDS011;53304;54.550;18.526;2023-11-21T01:02:54;5.07;;;2.35;;
66487;SDS011;53304;54.550;18.526;2023-11-21T01:05:21;4.15;;;2.40;;
66487;SDS011;53304;54.550;18.526;2023-11-21T01:07:47;4.70;;;2.30;;
66487;SDS011;53304;54.550;18.526;2023-11-21T01:10:15;4.97;;;2.40;;
66487;SDS011;53304;54.550;18.526;2023-11-21T01:12:45;4.10;;;2.20;;
66487;SDS011;53304;54.550;18.526;2023-11-21T01:15:14;3.90;;;2.20;;
66487;SDS011;53304;54.550;18.526;2023-11-21T01:17:39;3.90;;;2.38;;
66487;SDS011;53304;54.550;18.526;2023-11-21T01:20:05;4.97;;;2.00;;
66487;SDS011;53304;54.550;18.526;2023-11-21T01:22:38;7.13;;;2.55;;
66487;SDS011;53304;54.550;18.526;2023-11-21T01:25:04;4.63;;;2.30;;
66487;SDS011;53304;54.550;18.526;2023-11-21T01:27:32;3.92;;;2.13;;
66487;SDS011;53304;54.550;18.526;2023-11-21T01:30:03;4.38;;;2.05;;
66487;SDS011;53304;54.550;18.526;2023-11-21T01:32:29;4.63;;;2.28;;
66487;SDS011;53304;54.550;18.526;2023-11-21T01:34:55;7.47;;;2.25;;
66487;SDS011;53304;54.550;18.526;2023-11-21T01:37:25;5.65;;;2.35;;
66487;SDS011;53304;54.550;18.526;2023-11-21T01:39:55;4.35;;;2.25;;
66487;SDS011;53304;54.550;18.526;2023-11-21T01:42:21;3.55;;;1.90;;
66487;SDS011;53304;54.550;18.526;2023-11-21T01:44:46;4.03;;;2.10;;
66487;SDS011;53304;54.550;18.526;2023-11-21T01:47:11;4.30;;;2.03;;
66487;SDS011;53304;54.550;18.526;2023-11-21T01:49:38;3.50;;;2.00;;
66487;SDS011;53304;54.550;18.526;2023-11-21T01:52:04;3.53;;;2.08;;
66487;SDS011;53304;54.550;18.526;2023-11-21T01:54:29;4.07;;;2.35;;
66487;SDS011;53304;54.550;18.526;2023-11-21T01:57:02;3.60;;;2.10;;
66487;SDS011;53304;54.550;18.526;2023-11-21T01:59:35;3.80;;;2.00;;
66487;SDS011;53304;54.550;18.526;2023-11-21T02:02:07;5.07;;;2.10;;
66487;SDS011;53304;54.550;18.526;2023-11-21T02:04:35;4.63;;;2.15;;
66487;SDS011;53304;54.550;18.526;2023-11-21T02:07:04;3.85;;;1.88;;
66487;SDS011;53304;54.550;18.526;2023-11-21T02:09:35;3.58;;;2.10;;
66487;SDS011;53304;54.550;18.526;2023-11-21T02:12:03;4.88;;;2.00;;
66487;SDS011;53304;54.550;18.526;2023-11-21T02:14:31;3.45;;;1.90;;
66487;SDS011;53304;54.550;18.526;2023-11-21T02:16:57;5.00;;;2.30;;
66487;SDS011;53304;54.550;18.526;2023-11-21T02:19:25;4.47;;;2.10;;
66487;SDS011;53304;54.550;18.526;2023-11-21T02:21:53;3.53;;;2.15;;
66487;SDS011;53304;54.550;18.526;2023-11-21T02:24:22;4.82;;;2.10;;
66487;SDS011;53304;54.550;18.526;2023-11-21T02:26:52;2.83;;;1.88;;
66487;SDS011;53304;54.550;18.526;2023-11-21T02:29:21;4.40;;;2.10;;
66487;SDS011;53304;54.550;18.526;2023-11-21T02:31:53;3.35;;;1.95;;
66487;SDS011;53304;54.550;18.526;2023-11-21T02:34:20;3.05;;;1.70;;
66487;SDS011;53304;54.550;18.526;2023-11-21T02:36:48;3.72;;;2.00;;
66487;SDS011;53304;54.550;18.526;2023-11-21T02:39:16;3.80;;;1.70;;
66487;SDS011;53304;54.550;18.526;2023-11-21T02:41:50;3.10;;;1.92;;
66487;SDS011;53304;54.550;18.526;2023-11-21T02:44:15;4.35;;;2.20;;
66487;SDS011;53304;54.550;18.526;2023-11-21T02:46:43;4.45;;;2.08;;
66487;SDS011;53304;54.550;18.526;2023-11-21T02:49:13;4.97;;;1.88;;
66487;SDS011;53304;54.550;18.526;2023-11-21T02:51:38;3.78;;;2.05;;
66487;SDS011;53304;54.550;18.526;2023-11-21T02:54:05;3.95;;;1.77;;
66487;SDS011;53304;54.550;18.526;2023-11-21T02:56:32;2.75;;;1.80;;
66487;SDS011;53304;54.550;18.526;2023-11-21T02:59:00;4.80;;;2.58;;
66487;SDS011;53304;54.550;18.526;2023-11-21T03:01:26;4.13;;;2.30;;
66487;SDS011;53304;54.550;18.526;2023-11-21T03:03:52;3.35;;;2.00;;
66487;SDS011;53304;54.550;18.526;2023-11-21T03:06:23;4.13;;;2.25;;
66487;SDS011;53304;54.550;18.526;2023-11-21T03:08:48;3.28;;;2.00;;
66487;SDS011;53304;54.550;18.526;2023-11-21T03:11:16;3.85;;;2.20;;
66487;SDS011;53304;54.550;18.526;2023-11-21T03:13:45;5.10;;;2.20;;
66487;SDS011;53304;54.550;18.526;2023-11-21T03:16:10;4.38;;;2.10;;
66487;SDS011;53304;54.550;18.526;2023-11-21T03:18:38;4.05;;;2.22;;
66487;SDS011;53304;54.550;18.526;2023-11-21T03:21:08;4.88;;;2.00;;
66487;SDS011;53304;54.550;18.526;2023-11-21T03:23:34;4.00;;;2.10;;
66487;SDS011;53304;54.550;18.526;2023-11-21T03:26:03;4.57;;;2.10;;
66487;SDS011;53304;54.550;18.526;2023-11-21T03:28:29;5.28;;;2.13;;
66487;SDS011;53304;54.550;18.526;2023-11-21T03:30:55;4.97;;;2.15;;
66487;SDS011;53304;54.550;18.526;2023-11-21T03:33:25;3.45;;;2.05;;
66487;SDS011;53304;54.550;18.526;2023-11-21T03:35:51;4.10;;;2.10;;
66487;SDS011;53304;54.550;18.526;2023-11-21T03:38:18;3.97;;;2.10;;
66487;SDS011;53304;54.550;18.526;2023-11-21T03:40:43;4.85;;;2.10;;
66487;SDS011;53304;54.550;18.526;2023-11-21T03:43:09;4.70;;;2.50;;
66487;SDS011;53304;54.550;18.526;2023-11-21T03:45:39;3.22;;;1.98;;
66487;SDS011;53304;54.550;18.526;2023-11-21T03:48:07;3.78;;;2.08;;
66487;SDS011;53304;54.550;18.526;2023-11-21T03:50:36;4.35;;;2.08;;
66487;SDS011;53304;54.550;18.526;2023-11-21T03:53:02;4.13;;;1.92;;
66487;SDS011;53304;54.550;18.526;2023-11-21T03:55:27;3.45;;;1.92;;
66487;SDS011;53304;54.550;18.526;2023-11-21T03:57:52;4.00;;;2.08;;
66487;SDS011;53304;54.550;18.526;2023-11-21T04:00:20;4.40;;;2.10;;
66487;SDS011;53304;54.550;18.526;2023-11-21T04:02:46;3.60;;;2.00;;
66487;SDS011;53304;54.550;18.526;2023-11-21T04:05:11;2.80;;;1.85;;
66487;SDS011;53304;54.550;18.526;2023-11-21T04:07:41;3.97;;;2.10;;
66487;SDS011;53304;54.550;18.526;2023-11-21T04:10:07;3.72;;;2.20;;
66487;SDS011;53304;54.550;18.526;2023-11-21T04:12:37;3.38;;;2.03;;
66487;SDS011;53304;54.550;18.526;2023-11-21T04:15:08;3.83;;;1.90;;
66487;SDS011;53304;54.550;18.526;2023-11-21T04:17:34;3.70;;;1.90;;
66487;SDS011;53304;54.550;18.526;2023-11-21T04:20:00;2.92;;;2.00;;
66487;SDS011;53304;54.550;18.526;2023-11-21T04:22:25;4.15;;;1.95;;
66487;SDS011;53304;54.550;18.526;2023-11-21T04:24:53;3.50;;;2.03;;
66487;SDS011;53304;54.550;18.526;2023-11-21T04:27:20;4.13;;;2.08;;
66487;SDS011;53304;54.550;18.526;2023-11-21T04:29:50;3.58;;;2.00;;
66487;SDS011;53304;54.550;18.526;2023-11-21T04:32:16;4.57;;;2.17;;
66487;SDS011;53304;54.550;18.526;2023-11-21T04:34:41;5.20;;;2.20;;
66487;SDS011;53304;54.550;18.526;2023-11-21T04:37:09;3.67;;;1.92;;
66487;SDS011;53304;54.550;18.526;2023-11-21T04:39:39;5.45;;;2.15;;
66487;SDS011;53304;54.550;18.526;2023-11-21T04:42:06;4.30;;;2.13;;
66487;SDS011;53304;54.550;18.526;2023-11-21T04:44:32;3.25;;;1.83;;
66487;SDS011;53304;54.550;18.526;2023-11-21T04:46:57;3.47;;;1.90;;
66487;SDS011;53304;54.550;18.526;2023-11-21T04:49:23;3.70;;;2.20;;
66487;SDS011;53304;54.550;18.526;2023-11-21T04:51:48;7.97;;;2.17;;
66487;SDS011;53304;54.550;18.526;2023-11-21T04:54:16;3.80;;;2.03;;
66487;SDS011;53304;54.550;18.526;2023-11-21T04:56:45;3.93;;;2.17;;
66487;SDS011;53304;54.550;18.526;2023-11-21T04:59:10;4.20;;;2.13;;
66487;SDS011;53304;54.550;18.526;2023-11-21T05:01:36;4.75;;;2.10;;
66487;SDS011;53304;54.550;18.526;2023-11-21T05:04:06;3.25;;;1.80;;
66487;SDS011;53304;54.550;18.526;2023-11-21T05:06:33;5.07;;;1.90;;
66487;SDS011;53304;54.550;18.526;2023-11-21T05:09:02;2.88;;;1.90;;
66487;SDS011;53304;54.550;18.526;2023-11-21T05:11:30;3.88;;;2.30;;
66487;SDS011;53304;54.550;18.526;2023-11-21T05:13:55;2.63;;;1.73;;
66487;SDS011;53304;54.550;18.526;2023-11-21T05:16:22;4.22;;;2.17;;
66487;SDS011;53304;54.550;18.526;2023-11-21T05:18:52;3.83;;;2.05;;
66487;SDS011;53304;54.550;18.526;2023-11-21T05:21:25;4.03;;;2.10;;
66487;SDS011;53304;54.550;18.526;2023-11-21T05:23:56;4.03;;;2.17;;
66487;SDS011;53304;54.550;18.526;2023-11-21T05:26:24;3.88;;;2.03;;
66487;SDS011;53304;54.550;18.526;2023-11-21T05:28:49;4.38;;;2.03;;
66487;SDS011;53304;54.550;18.526;2023-11-21T05:31:15;4.20;;;2.08;;
66487;SDS011;53304;54.550;18.526;2023-11-21T05:33:40;4.00;;;2.40;;
66487;SDS011;53304;54.550;18.526;2023-11-21T05:36:06;4.03;;;2.05;;
66487;SDS011;53304;54.550;18.526;2023-11-21T05:38:33;3.03;;;1.80;;
66487;SDS011;53304;54.550;18.526;2023-11-21T05:40:58;2.83;;;1.75;;
66487;SDS011;53304;54.550;18.526;2023-11-21T05:43:24;2.88;;;1.77;;
66487;SDS011;53304;54.550;18.526;2023-11-21T05:45:49;4.53;;;2.10;;
66487;SDS011;53304;54.550;18.526;2023-11-21T05:48:15;3.72;;;1.92;;
66487;SDS011;53304;54.550;18.526;2023-11-21T05:50:40;3.88;;;1.90;;
66487;SDS011;53304;54.550;18.526;2023-11-21T05:53:06;4.07;;;2.08;;
66487;SDS011;53304;54.550;18.526;2023-11-21T05:55:32;6.88;;;2.20;;
66487;SDS011;53304;54.550;18.526;2023-11-21T05:57:59;3.58;;;1.77;;
66487;SDS011;53304;54.550;18.526;2023-11-21T06:00:30;3.65;;;1.77;;
66487;SDS011;53304;54.550;18.526;2023-11-21T06:02:58;2.47;;;1.70;;
66487;SDS011;53304;54.550;18.526;2023-11-21T06:05:24;2.83;;;1.70;;
66487;SDS011;53304;54.550;18.526;2023-11-21T06:07:55;2.55;;;1.60;;
66487;SDS011;53304;54.550;18.526;2023-11-21T06:10:24;2.97;;;1.70;;
66487;SDS011;53304;54.550;18.526;2023-11-21T06:12:49;4.63;;;2.00;;
66487;SDS011;53304;54.550;18.526;2023-11-21T06:15:15;3.00;;;2.05;;
66487;SDS011;53304;54.550;18.526;2023-11-21T06:17:41;3.20;;;1.98;;
66487;SDS011;53304;54.550;18.526;2023-11-21T06:20:14;2.15;;;1.58;;
66487;SDS011;53304;54.550;18.526;2023-11-21T06:22:43;3.58;;;1.83;;
66487;SDS011;53304;54.550;18.526;2023-11-21T06:25:12;3.35;;;1.98;;
66487;SDS011;53304;54.550;18.526;2023-11-21T06:27:39;4.00;;;1.80;;
66487;SDS011;53304;54.550;18.526;2023-11-21T06:30:07;3.42;;;2.00;;
66487;SDS011;53304;54.550;18.526;2023-11-21T06:32:37;4.55;;;1.80;;
66487;SDS011;53304;54.550;18.526;2023-11-21T06:35:03;5.13;;;2.20;;
66487;SDS011;53304;54.550;18.526;2023-11-21T06:37:32;6.45;;;2.13;;
66487;SDS011;53304;54.550;18.526;2023-11-21T06:39:58;5.38;;;1.90;;
66487;SDS011;53304;54.550;18.526;2023-11-21T06:42:25;5.07;;;1.92;;
66487;SDS011;53304;54.550;18.526;2023-11-21T06:44:53;5.07;;;2.30;;
66487;SDS011;53304;54.550;18.526;2023-11-21T06:47:29;7.25;;;2.13;;
66487;SDS011;53304;54.550;18.526;2023-11-21T06:49:57;8.35;;;2.25;;
66487;SDS011;53304;54.550;18.526;2023-11-21T06:52:25;6.93;;;2.33;;
66487;SDS011;53304;54.550;18.526;2023-11-21T06:54:53;7.20;;;2.05;;
66487;SDS011;53304;54.550;18.526;2023-11-21T06:57:22;3.90;;;1.80;;
66487;SDS011;53304;54.550;18.526;2023-11-21T06:59:48;3.15;;;1.63;;
66487;SDS011;53304;54.550;18.526;2023-11-21T07:02:13;4.55;;;1.95;;
66487;SDS011;53304;54.550;18.526;2023-11-21T07:04:43;5.50;;;2.08;;
66487;SDS011;53304;54.550;18.526;2023-11-21T07:07:11;5.40;;;2.15;;
66487;SDS011;53304;54.550;18.526;2023-11-21T07:09:39;5.28;;;1.80;;
66487;SDS011;53304;54.550;18.526;2023-11-21T07:12:07;8.98;;;2.30;;
66487;SDS011;53304;54.550;18.526;2023-11-21T07:14:33;8.45;;;2.25;;
66487;SDS011;53304;54.550;18.526;2023-11-21T07:16:59;5.88;;;2.47;;
66487;SDS011;53304;54.550;18.526;2023-11-21T07:19:27;8.25;;;2.40;;
66487;SDS011;53304;54.550;18.526;2023-11-21T07:21:52;7.00;;;2.40;;
66487;SDS011;53304;54.550;18.526;2023-11-21T07:24:20;9.15;;;2.35;;
66487;SDS011;53304;54.550;18.526;2023-11-21T07:26:46;6.88;;;2.08;;
66487;SDS011;53304;54.550;18.526;2023-11-21T07:29:14;9.68;;;2.25;;
66487;SDS011;53304;54.550;18.526;2023-11-21T07:31:42;15.77;;;3.40;;
66487;SDS011;53304;54.550;18.526;2023-11-21T07:34:09;11.90;;;3.10;;
66487;SDS011;53304;54.550;18.526;2023-11-21T07:36:37;19.02;;;3.95;;
66487;SDS011;53304;54.550;18.526;2023-11-21T07:39:04;15.45;;;3.20;;
66487;SDS011;53304;54.550;18.526;2023-11-21T07:41:31;14.15;;;3.42;;
66487;SDS011;53304;54.550;18.526;2023-11-21T07:43:57;8.43;;;2.67;;
66487;SDS011;53304;54.550;18.526;2023-11-21T07:46:23;9.38;;;2.60;;
66487;SDS011;53304;54.550;18.526;2023-11-21T07:48:49;14.93;;;2.97;;
66487;SDS011;53304;54.550;18.526;2023-11-21T07:51:17;10.13;;;2.72;;
66487;SDS011;53304;54.550;18.526;2023-11-21T07:53:42;5.95;;;2.20;;
66487;SDS011;53304;54.550;18.526;2023-11-21T07:56:12;8.57;;;2.60;;
66487;SDS011;53304;54.550;18.526;2023-11-21T07:58:38;9.20;;;2.35;;
66487;SDS011;53304;54.550;18.526;2023-11-21T08:01:06;9.00;;;2.60;;
66487;SDS011;53304;54.550;18.526;2023-11-21T08:03:33;9.98;;;2.80;;
66487;SDS011;53304;54.550;18.526;2023-11-21T08:05:58;12.95;;;3.45;;
66487;SDS011;53304;54.550;18.526;2023-11-21T08:08:27;12.13;;;3.95;;
66487;SDS011;53304;54.550;18.526;2023-11-21T08:10:52;15.20;;;3.90;;
66487;SDS011;53304;54.550;18.526;2023-11-21T08:13:28;15.43;;;4.60;;
66487;SDS011;53304;54.550;18.526;2023-11-21T08:15:54;19.00;;;5.05;;
66487;SDS011;53304;54.550;18.526;2023-11-21T08:20:54;18.55;;;5.43;;
66487;SDS011;53304;54.550;18.526;2023-11-21T08:23:22;18.13;;;5.93;;
66487;SDS011;53304;54.550;18.526;2023-11-21T08:25:50;18.95;;;4.90;;
66487;SDS011;53304;54.550;18.526;2023-11-21T08:28:19;19.75;;;5.32;;
66487;SDS011;53304;54.550;18.526;2023-11-21T08:30:51;18.27;;;5.97;;
66487;SDS011;53304;54.550;18.526;2023-11-21T08:33:19;18.10;;;5.75;;
66487;SDS011;53304;54.550;18.526;2023-11-21T08:35:47;19.48;;;5.43;;
66487;SDS011;53304;54.550;18.526;2023-11-21T08:38:13;15.15;;;5.35;;
66487;SDS011;53304;54.550;18.526;2023-11-21T08:40:39;15.77;;;5.50;;
66487;SDS011;53304;54.550;18.526;2023-11-21T08:43:06;17.38;;;5.13;;
66487;SDS011;53304;54.550;18.526;2023-11-21T08:45:33;16.65;;;5.32;;
66487;SDS011;53304;54.550;18.526;2023-11-21T08:47:59;18.90;;;5.65;;
66487;SDS011;53304;54.550;18.526;2023-11-21T08:50:25;16.48;;;5.28;;
66487;SDS011;53304;54.550;18.526;2023-11-21T08:52:53;15.60;;;4.90;;
66487;SDS011;53304;54.550;18.526;2023-11-21T08:55:20;14.52;;;4.50;;
66487;SDS011;53304;54.550;18.526;2023-11-21T08:57:47;13.95;;;4.65;;
66487;SDS011;53304;54.550;18.526;2023-11-21T09:00:15;14.15;;;5.18;;
66487;SDS011;53304;54.550;18.526;2023-11-21T09:02:42;15.77;;;4.68;;
66487;SDS011;53304;54.550;18.526;2023-11-21T09:05:08;17.98;;;5.28;;
66487;SDS011;53304;54.550;18.526;2023-11-21T09:07:38;18.95;;;4.75;;
66487;SDS011;53304;54.550;18.526;2023-11-21T09:10:06;15.93;;;4.88;;
66487;SDS011;53304;54.550;18.526;2023-11-21T09:12:32;13.75;;;4.50;;
66487;SDS011;53304;54.550;18.526;2023-11-21T09:14:58;13.57;;;4.78;;
66487;SDS011;53304;54.550;18.526;2023-11-21T09:17:25;18.98;;;5.07;;
66487;SDS011;53304;54.550;18.526;2023-11-21T09:19:50;15.98;;;4.57;;
66487;SDS011;53304;54.550;18.526;2023-11-21T09:22:16;13.07;;;4.53;;
66487;SDS011;53304;54.550;18.526;2023-11-21T09:24:45;18.00;;;4.70;;
66487;SDS011;53304;54.550;18.526;2023-11-21T09:27:10;14.10;;;4.22;;
66487;SDS011;53304;54.550;18.526;2023-11-21T09:29:36;17.42;;;4.75;;
66487;SDS011;53304;54.550;18.526;2023-11-21T09:32:08;16.25;;;4.97;;
66487;SDS011;53304;54.550;18.526;2023-11-21T09:34:39;10.18;;;4.35;;
66487;SDS011;53304;54.550;18.526;2023-11-21T09:37:05;15.40;;;4.80;;
66487;SDS011;53304;54.550;18.526;2023-11-21T09:39:36;11.68;;;4.03;;
66487;SDS011;53304;54.550;18.526;2023-11-21T09:42:04;14.77;;;3.70;;
66487;SDS011;53304;54.550;18.526;2023-11-21T09:47:14;13.35;;;4.25;;
66487;SDS011;53304;54.550;18.526;2023-11-21T09:49:41;11.05;;;3.72;;
66487;SDS011;53304;54.550;18.526;2023-11-21T09:52:14;12.45;;;4.30;;
66487;SDS011;53304;54.550;18.526;2023-11-21T09:54:54;10.63;;;3.75;;
66487;SDS011;53304;54.550;18.526;2023-11-21T09:57:26;12.35;;;3.95;;
66487;SDS011;53304;54.550;18.526;2023-11-21T09:59:52;12.70;;;4.20;;
66487;SDS011;53304;54.550;18.526;2023-11-21T10:02:22;10.68;;;3.80;;
66487;SDS011;53304;54.550;18.526;2023-11-21T10:04:51;12.18;;;3.80;;
66487;SDS011;53304;54.550;18.526;2023-11-21T10:07:19;9.98;;;3.78;;
66487;SDS011;53304;54.550;18.526;2023-11-21T10:09:46;9.43;;;3.85;;
66487;SDS011;53304;54.550;18.526;2023-11-21T10:12:14;8.80;;;3.58;;
66487;SDS011;53304;54.550;18.526;2023-11-21T10:14:41;10.23;;;4.05;;
66487;SDS011;53304;54.550;18.526;2023-11-21T10:17:11;9.82;;;3.38;;
66487;SDS011;53304;54.550;18.526;2023-11-21T10:19:38;10.30;;;3.90;;
66487;SDS011;53304;54.550;18.526;2023-11-21T10:22:04;8.73;;;3.50;;
66487;SDS011;53304;54.550;18.526;2023-11-21T10:24:32;8.93;;;3.40;;
66487;SDS011;53304;54.550;18.526;2023-11-21T10:26:57;8.27;;;3.60;;
66487;SDS011;53304;54.550;18.526;2023-11-21T10:29:28;7.97;;;3.33;;
66487;SDS011;53304;54.550;18.526;2023-11-21T10:31:55;9.40;;;3.58;;
66487;SDS011;53304;54.550;18.526;2023-11-21T10:34:22;10.60;;;3.50;;
66487;SDS011;53304;54.550;18.526;2023-11-21T10:36:48;7.85;;;3.22;;
66487;SDS011;53304;54.550;18.526;2023-11-21T10:39:17;9.82;;;3.40;;
66487;SDS011;53304;54.550;18.526;2023-11-21T10:41:45;7.70;;;3.42;;
66487;SDS011;53304;54.550;18.526;2023-11-21T10:44:16;8.55;;;3.03;;
66487;SDS011;53304;54.550;18.526;2023-11-21T10:46:49;9.05;;;3.30;;
66487;SDS011;53304;54.550;18.526;2023-11-21T10:49:21;8.80;;;3.10;;
66487;SDS011;53304;54.550;18.526;2023-11-21T10:51:50;7.05;;;2.67;;
66487;SDS011;53304;54.550;18.526;2023-11-21T10:54:22;7.70;;;3.30;;
66487;SDS011;53304;54.550;18.526;2023-11-21T10:57:01;7.38;;;3.15;;
66487;SDS011;53304;54.550;18.526;2023-11-21T10:59:29;7.70;;;2.80;;
66487;SDS011;53304;54.550;18.526;2023-11-21T11:01:57;9.38;;;3.10;;
66487;SDS011;53304;54.550;18.526;2023-11-21T11:04:23;7.03;;;2.72;;
66487;SDS011;53304;54.550;18.526;2023-11-21T11:07:02;8.00;;;2.70;;
66487;SDS011;53304;54.550;18.526;2023-11-21T11:09:31;7.68;;;2.92;;
66487;SDS011;53304;54.550;18.526;2023-11-21T11:11:58;6.70;;;2.83;;
66487;SDS011;53304;54.550;18.526;2023-11-21T11:14:24;7.30;;;2.53;;
66487;SDS011;53304;54.550;18.526;2023-11-21T11:16:52;6.22;;;2.78;;
66487;SDS011;53304;54.550;18.526;2023-11-21T11:19:18;6.63;;;2.97;;
66487;SDS011;53304;54.550;18.526;2023-11-21T11:30:39;13.82;;;3.25;;
66487;SDS011;53304;54.550;18.526;2023-11-21T11:35:56;7.97;;;2.75;;
66487;SDS011;53304;54.550;18.526;2023-11-21T11:38:27;6.32;;;2.47;;
66487;SDS011;53304;54.550;18.526;2023-11-21T11:41:04;6.43;;;2.78;;
66487;SDS011;53304;54.550;18.526;2023-11-21T11:43:30;7.53;;;2.33;;
66487;SDS011;53304;54.550;18.526;2023-11-21T11:45:58;7.68;;;2.85;;
66487;SDS011;53304;54.550;18.526;2023-11-21T11:48:27;9.20;;;3.05;;
66487;SDS011;53304;54.550;18.526;2023-11-21T11:54:07;9.27;;;2.65;;
66487;SDS011;53304;54.550;18.526;2023-11-21T11:56:33;9.43;;;2.63;;
66487;SDS011;53304;54.550;18.526;2023-11-21T11:59:03;9.73;;;2.38;;
66487;SDS011;53304;54.550;18.526;2023-11-21T12:01:39;5.05;;;2.53;;
66487;SDS011;53304;54.550;18.526;2023-11-21T12:04:49;7.88;;;2.65;;
66487;SDS011;53304;54.550;18.526;2023-11-21T12:07:22;6.15;;;2.58;;
66487;SDS011;53304;54.550;18.526;2023-11-21T12:10:06;5.75;;;2.03;;
66487;SDS011;53304;54.550;18.526;2023-11-21T12:12:31;5.22;;;2.22;;
66487;SDS011;53304;54.550;18.526;2023-11-21T12:15:00;7.25;;;2.47;;
66487;SDS011;53304;54.550;18.526;2023-11-21T12:17:26;6.78;;;2.50;;
66487;SDS011;53304;54.550;18.526;2023-11-21T12:20:00;6.22;;;2.10;;
66487;SDS011;53304;54.550;18.526;2023-11-21T12:22:34;7.85;;;2.30;;
66487;SDS011;53304;54.550;18.526;2023-11-21T12:25:41;5.10;;;2.38;;
66487;SDS011;53304;54.550;18.526;2023-11-21T12:28:07;8.80;;;2.40;;
66487;SDS011;53304;54.550;18.526;2023-11-21T12:30:36;5.90;;;2.60;;
66487;SDS011;53304;54.550;18.526;2023-11-21T12:33:04;7.25;;;2.63;;
66487;SDS011;53304;54.550;18.526;2023-11-21T12:35:34;5.40;;;2.42;;
66487;SDS011;53304;54.550;18.526;2023-11-21T12:38:00;4.82;;;2.53;;
66487;SDS011;53304;54.550;18.526;2023-11-21T12:40:35;5.40;;;2.25;;
66487;SDS011;53304;54.550;18.526;2023-11-21T12:43:04;5.47;;;2.20;;
66487;SDS011;53304;54.550;18.526;2023-11-21T12:45:37;5.93;;;2.35;;
66487;SDS011;53304;54.550;18.526;2023-11-21T12:48:06;4.30;;;2.30;;
66487;SDS011;53304;54.550;18.526;2023-11-21T12:50:46;5.72;;;2.10;;
66487;SDS011;53304;54.550;18.526;2023-11-21T12:53:41;4.18;;;2.22;;
66487;SDS011;53304;54.550;18.526;2023-11-21T12:56:13;4.72;;;2.17;;
66487;SDS011;53304;54.550;18.526;2023-11-21T12:58:44;5.03;;;2.47;;
66487;SDS011;53304;54.550;18.526;2023-11-21T13:01:16;4.53;;;2.20;;
66487;SDS011;53304;54.550;18.526;2023-11-21T13:03:47;4.40;;;1.90;;
66487;SDS011;53304;54.550;18.526;2023-11-21T13:06:30;4.88;;;2.30;;
66487;SDS011;53304;54.550;18.526;2023-11-21T13:09:20;5.60;;;2.15;;
66487;SDS011;53304;54.550;18.526;2023-11-21T13:11:49;4.25;;;1.95;;
66487;SDS011;53304;54.550;18.526;2023-11-21T13:14:16;3.78;;;2.15;;
66487;SDS011;53304;54.550;18.526;2023-11-21T13:16:57;3.95;;;1.90;;
66487;SDS011;53304;54.550;18.526;2023-11-21T13:19:22;8.57;;;2.30;;
66487;SDS011;53304;54.550;18.526;2023-11-21T13:21:57;6.60;;;1.98;;
66487;SDS011;53304;54.550;18.526;2023-11-21T13:24:26;4.22;;;2.17;;
66487;SDS011;53304;54.550;18.526;2023-11-21T13:27:00;4.03;;;2.33;;
66487;SDS011;53304;54.550;18.526;2023-11-21T13:29:34;5.35;;;2.30;;
66487;SDS011;53304;54.550;18.526;2023-11-21T13:32:37;4.30;;;2.10;;
66487;SDS011;53304;54.550;18.526;2023-11-21T13:35:31;6.32;;;2.25;;
66487;SDS011;53304;54.550;18.526;2023-11-21T13:38:21;4.85;;;2.17;;
66487;SDS011;53304;54.550;18.526;2023-11-21T13:40:58;4.65;;;1.98;;
66487;SDS011;53304;54.550;18.526;2023-11-21T13:43:26;4.93;;;2.22;;
66487;SDS011;53304;54.550;18.526;2023-11-21T13:46:28;4.82;;;2.30;;
66487;SDS011;53304;54.550;18.526;2023-11-21T13:49:27;5.32;;;2.20;;
66487;SDS011;53304;54.550;18.526;2023-11-21T13:52:45;4.88;;;1.90;;
66487;SDS011;53304;54.550;18.526;2023-11-21T13:55:20;4.03;;;2.13;;
66487;SDS011;53304;54.550;18.526;2023-11-21T13:58:20;4.75;;;2.05;;
66487;SDS011;53304;54.550;18.526;2023-11-21T14:01:09;4.32;;;1.85;;
66487;SDS011;53304;54.550;18.526;2023-11-21T14:03:56;4.18;;;1.95;;
66487;SDS011;53304;54.550;18.526;2023-11-21T14:06:40;3.78;;;2.00;;
66487;SDS011;53304;54.550;18.526;2023-11-21T14:09:14;3.65;;;1.63;;
66487;SDS011;53304;54.550;18.526;2023-11-21T14:11:56;3.17;;;1.80;;
66487;SDS011;53304;54.550;18.526;2023-11-21T14:14:31;3.90;;;1.90;;
66487;SDS011;53304;54.550;18.526;2023-11-21T14:17:06;4.18;;;1.90;;
66487;SDS011;53304;54.550;18.526;2023-11-21T14:20:20;3.70;;;1.92;;
66487;SDS011;53304;54.550;18.526;2023-11-21T14:22:47;4.50;;;2.42;;
66487;SDS011;53304;54.550;18.526;2023-11-21T14:25:25;5.20;;;2.20;;
66487;SDS011;53304;54.550;18.526;2023-11-21T14:28:26;3.95;;;1.92;;
66487;SDS011;53304;54.550;18.526;2023-11-21T14:30:54;3.97;;;2.00;;
66487;SDS011;53304;54.550;18.526;2023-11-21T14:33:22;3.50;;;2.00;;
66487;SDS011;53304;54.550;18.526;2023-11-21T14:35:50;4.32;;;1.90;;
66487;SDS011;53304;54.550;18.526;2023-11-21T14:38:17;3.22;;;1.77;;
66487;SDS011;53304;54.550;18.526;2023-11-21T14:40:43;3.72;;;1.92;;
66487;SDS011;53304;54.550;18.526;2023-11-21T14:43:14;3.88;;;2.05;;
66487;SDS011;53304;54.550;18.526;2023-11-21T14:48:09;4.03;;;2.20;;
66487;SDS011;53304;54.550;18.526;2023-11-21T14:50:45;3.85;;;2.17;;
66487;SDS011;53304;54.550;18.526;2023-11-21T14:53:36;4.88;;;2.00;;
66487;SDS011;53304;54.550;18.526;2023-11-21T14:56:41;3.70;;;1.92;;
66487;SDS011;53304;54.550;18.526;2023-11-21T14:59:12;3.35;;;1.95;;
66487;SDS011;53304;54.550;18.526;2023-11-21T15:01:41;4.50;;;2.10;;
66487;SDS011;53304;54.550;18.526;2023-11-21T15:04:16;4.00;;;1.95;;
66487;SDS011;53304;54.550;18.526;2023-11-21T15:06:56;3.60;;;2.05;;
66487;SDS011;53304;54.550;18.526;2023-11-21T15:09:24;3.72;;;2.00;;
66487;SDS011;53304;54.550;18.526;2023-11-21T15:12:11;3.80;;;2.13;;